Time;durP1;ratioP1;P1;durP2;ratioP2;P2;SDS_P1;SDS_P2;PMS_P1;PMS_P2;Temp;Humidity;BMP_temperature;BMP_pressure;BME280_temperature;BME280_humidity;BME280_pressure;Samples;Min_cycle;Max_cycle;Signal;HPM_P1;HPM_P2
2023/09/23 00:01:11;;;;;;;20.17;12.17;;;;;;;11.40;100.00;-5807.00;4824311;29;20491;-73
2023/09/23 00:03:37;;;;;;;15.10;13.20;;;;;;;11.45;100.00;-6490.69;4816366;29;20049;-73
2023/09/23 00:06:03;;;;;;;13.73;12.20;;;;;;;11.42;100.00;-6490.50;4808204;29;20045;-76
2023/09/23 00:08:29;;;;;;;13.52;12.10;;;;;;;11.36;100.00;-6490.00;4807069;29;20387;-77
2023/09/23 00:10:56;;;;;;;12.90;11.60;;;;;;;11.39;100.00;-6831.84;4813735;29;20042;-76
2023/09/23 00:13:21;;;;;;;;;;;;;;;11.43;100.00;-6832.16;4801699;29;20061;-76
2023/09/23 00:15:51;;;;;;;16.70;11.65;;;;;;;11.43;100.00;-7173.81;4820629;29;19928;-77
2023/09/23 00:18:17;;;;;;;15.20;12.68;;;;;;;11.42;100.00;-7173.69;4833203;29;20030;-77
2023/09/23 00:20:46;;;;;;;15.00;13.27;;;;;;;11.41;100.00;-7515.16;4836382;29;20838;-76
2023/09/23 00:51:39;;;;;;;14.40;12.82;;;;;;;11.06;100.00;-8194.63;5074117;24;20443;-75
2023/09/23 00:54:06;;;;;;;15.18;12.15;;;;;;;11.02;100.00;-8194.19;4810120;29;20089;-77
2023/09/23 00:56:36;;;;;;;26.90;13.57;;;;;;;11.06;100.00;-8535.84;4832019;29;20068;-77
2023/09/23 00:59:05;;;;;;;16.48;12.23;;;;;;;10.88;100.00;-8533.94;4831706;29;20514;-75
2023/09/23 01:01:31;;;;;;;13.25;11.77;;;;;;;10.90;100.00;-8534.09;4833828;29;20022;-77
2023/09/23 01:03:58;;;;;;;18.47;13.00;;;;;;;10.90;100.00;-8875.25;4832170;29;20029;-76
2023/09/23 01:49:20;;;;;;;17.92;12.20;;;;;;;11.26;100.00;-14337.06;5683067;24;20292;-76
2023/09/23 01:51:46;;;;;;;17.13;11.37;;;;;;;11.32;100.00;-14679.25;4855885;29;20037;-75
2023/09/23 01:54:16;;;;;;;16.25;10.93;;;;;;;11.34;100.00;-14679.56;4826608;29;20037;-76
2023/09/23 01:56:42;;;;;;;14.75;11.85;;;;;;;11.40;100.00;-15021.72;4835826;29;20529;-76
2023/09/23 01:59:09;;;;;;;16.88;11.02;;;;;;;11.47;100.00;-15364.13;4847635;29;20038;-76
2023/09/23 02:01:35;;;;;;;;;;;;;;;11.49;100.00;-15705.56;4849203;29;20033;-76
2023/09/23 02:24:41;;;;;;;14.63;11.18;;;;;;;11.82;100.00;-17076.97;5096588;24;20066;-75
2023/09/23 02:27:07;;;;;;;13.07;10.37;;;;;;;11.84;100.00;-17077.34;4835956;29;20514;-76
2023/09/23 02:29:33;;;;;;;20.83;11.00;;;;;;;11.88;100.00;-17419.28;4816646;29;20034;-76
2023/09/23 02:32:00;;;;;;;18.23;10.80;;;;;;;11.91;100.00;-17420.16;4834376;29;20140;-76
2023/09/23 02:34:26;;;;;;;17.63;10.07;;;;;;;11.92;100.00;-17420.28;4817682;29;20026;-75
2023/09/23 02:36:52;;;;;;;13.87;10.00;;;;;;;11.97;100.00;-17421.56;4833238;29;20086;-76
2023/09/23 02:39:20;;;;;;;18.00;10.70;;;;;;;11.99;100.00;-17763.19;4819486;29;20129;-75
2023/09/23 02:41:50;;;;;;;18.73;10.48;;;;;;;12.06;100.00;-18105.84;4837399;29;20499;-75
2023/09/23 02:44:22;;;;;;;18.13;9.73;;;;;;;12.18;100.00;-18109.00;4815669;29;20026;-75
2023/09/23 02:46:49;;;;;;;16.63;9.65;;;;;;;12.17;100.00;-17767.72;4830268;29;20027;-76
2023/09/23 02:49:16;;;;;;;14.48;8.57;;;;;;;12.18;100.00;-17427.00;4831959;29;20116;-75
2023/09/23 03:20:10;;;;;;;15.30;8.88;;;;;;;12.08;100.00;-11622.34;5182431;24;20070;-77
2023/09/23 03:22:36;;;;;;;12.82;9.55;;;;;;;12.05;100.00;-10938.66;4821591;29;20483;-75
2023/09/23 03:25:03;;;;;;;11.97;8.70;;;;;;;12.00;100.00;-10938.00;4830342;29;20129;-76
2023/09/23 03:45:35;;;;;;;14.23;8.95;;;;;;;11.81;100.00;-11276.63;5259245;24;20060;-73
2023/09/23 03:53:11;;;;;;;18.38;8.98;;;;;;;11.86;100.00;-11960.28;5422872;24;20572;-73
2023/09/23 03:55:37;;;;;;;15.53;8.30;;;;;;;11.84;100.00;-11959.94;4839328;29;20046;-74
2023/09/23 05:24:09;;;;;;;13.95;8.65;;;;;;;11.78;100.00;-14006.59;5896693;24;20116;31
2023/09/23 05:26:36;;;;;;;20.05;9.30;;;;;;;11.79;100.00;-14006.69;4840239;29;20049;-75
2023/09/23 05:29:02;;;;;;;;;;;;;;;11.82;100.00;-14348.56;4841484;29;20030;-76
2023/09/23 05:31:30;;;;;;;18.25;9.63;;;;;;;11.88;100.00;-14690.97;4825222;29;19921;-75
2023/09/23 05:33:56;;;;;;;15.60;8.57;;;;;;;11.89;100.00;-14691.09;4839775;29;20110;-76
2023/09/23 05:36:21;;;;;;;20.77;8.57;;;;;;;11.86;100.00;-14690.56;4832062;29;20120;-76
2023/09/23 05:38:47;;;;;;;15.73;8.80;;;;;;;11.84;100.00;-14690.03;4822052;29;20025;-76
2023/09/23 05:41:13;;;;;;;17.00;9.03;;;;;;;11.88;100.00;-14690.88;4840623;29;20061;-76
2023/09/23 05:43:39;;;;;;;12.68;8.30;;;;;;;11.93;100.00;-14691.91;4838427;29;20018;-77
2023/09/23 05:46:05;;;;;;;17.83;9.00;;;;;;;11.97;100.00;-14692.88;4839442;29;20044;-76
2023/09/23 05:48:32;;;;;;;16.13;8.37;;;;;;;11.94;100.00;-14692.13;4822900;29;20150;-77
2023/09/23 05:51:05;;;;;;;11.55;8.25;;;;;;;12.00;100.00;-14693.38;4817968;29;20045;-77
2023/09/23 05:53:33;;;;;;;18.17;8.75;;;;;;;12.00;100.00;-15034.63;4834627;29;20097;-76
2023/09/23 06:19:15;;;;;;;18.83;8.27;;;;;;;12.26;100.00;-15040.31;4977936;24;20058;-75
2023/09/23 06:21:41;;;;;;;18.50;8.20;;;;;;;12.34;100.00;-15042.00;4819046;29;20046;-75
2023/09/23 06:24:07;;;;;;;16.93;7.80;;;;;;;12.40;100.00;-15043.31;4832906;29;20030;-75
2023/09/23 06:26:33;;;;;;;17.30;8.23;;;;;;;12.46;100.00;-15044.47;4834078;29;20442;-76
2023/09/23 06:28:59;;;;;;;18.25;7.70;;;;;;;12.49;100.00;-14703.75;4815240;29;20060;-75
2023/09/23 06:31:24;;;;;;;16.17;8.27;;;;;;;12.47;100.00;-14361.69;4820514;29;20617;-75
2023/09/23 06:33:50;;;;;;;13.20;7.67;;;;;;;12.45;100.00;-14019.88;4833091;29;20037;-75
2023/09/23 06:36:15;;;;;;;16.70;7.73;;;;;;;12.45;100.00;-13336.59;4834393;29;20042;-75
2023/09/23 06:38:40;;;;;;;12.50;7.53;;;;;;;12.43;100.00;-12652.97;4835619;29;20094;-75
2023/09/23 06:41:06;;;;;;;17.37;7.93;;;;;;;12.44;100.00;-12311.47;4831819;29;20087;-75
2023/09/23 06:43:31;;;;;;;14.60;7.93;;;;;;;12.44;100.00;-12653.16;4836736;29;20040;-75
2023/09/23 06:45:58;;;;;;;19.00;7.47;;;;;;;12.53;100.00;-12996.44;4817758;29;20034;-76
2023/09/23 06:48:24;;;;;;;17.10;7.35;;;;;;;12.55;100.00;-12996.78;4816845;29;20038;-76
2023/09/23 06:50:57;;;;;;;12.07;7.05;;;;;;;12.53;100.00;-12313.00;4832419;29;20054;-76
2023/09/23 06:53:23;;;;;;;13.85;7.80;;;;;;;12.52;100.00;-12312.81;5057244;24;20058;-75
2023/09/23 06:55:49;;;;;;;10.80;7.47;;;;;;;12.57;100.00;-12313.69;4812086;29;20741;-76
2023/09/23 06:58:14;;;;;;;19.80;7.77;;;;;;;12.66;100.00;-12657.09;4835585;29;20392;-76
2023/09/23 07:36:52;;;;;;;10.73;5.57;;;;;;;14.02;100.00;701.56;4841047;24;20061;-73
2023/09/23 07:39:17;;;;;;;13.27;5.83;;;;;;;13.98;100.00;2764.22;4832106;29;20034;-73
2023/09/23 07:41:43;;;;;;;14.33;5.70;;;;;;;13.96;100.00;3451.91;4833531;29;20030;-75
2023/09/23 07:44:10;;;;;;;14.23;5.93;;;;;;;13.94;100.00;3795.75;4833122;29;20038;-74
2023/09/23 08:48:41;;;;;;;11.55;3.75;;;;;;;15.13;100.00;20384.78;5192776;24;20156;-76
2023/09/23 08:51:08;;;;;;;9.88;4.07;;;;;;;15.25;100.00;23852.25;5092388;24;20077;-76
2023/09/23 08:53:37;;;;;;;11.05;3.95;;;;;;;15.24;100.00;28011.84;4816425;29;20039;-75
2023/09/23 09:45:13;;;;;;;11.38;2.88;;;;;;;16.71;100.00;100716.75;5752615;24;19920;-74
2023/09/23 09:47:41;;;;;;;11.00;2.65;;;;;;;16.95;100.00;112108.25;4834576;29;20094;-74
2023/09/23 09:50:07;;;;;;;9.43;2.60;;;;;;;17.13;100.00;114630.00;4847153;29;20420;-74
2023/09/23 09:52:35;;;;;;;13.40;3.53;;;;;;;16.82;100.00;96841.47;4848277;29;20037;-76
2023/09/23 09:57:43;;;;;;;15.82;4.00;;;;;;;16.01;100.00;59430.69;5843539;24;20169;-75
2023/09/23 10:00:27;;;;;;;9.23;3.75;;;;;;;15.84;100.00;45787.94;4824740;29;20048;-74
2023/09/23 10:03:05;;;;;;;9.80;3.08;;;;;;;15.65;100.00;38806.22;4829158;29;20044;-74
2023/09/23 10:05:39;;;;;;;5.88;2.55;;;;;;;15.47;100.00;38098.47;4810449;29;20444;-74
2023/09/23 10:08:13;;;;;;;6.88;2.85;;;;;;;15.45;100.00;30798.81;4820858;29;20499;-75
2023/09/23 10:10:44;;;;;;;7.95;3.20;;;;;;;15.46;100.00;26634.91;4802328;29;20044;-74
2023/09/23 10:13:18;;;;;;;7.57;2.80;;;;;;;15.47;100.00;24901.47;4810272;29;20042;-73
2023/09/23 10:15:44;;;;;;;5.97;2.78;;;;;;;15.60;100.00;23173.63;4821106;29;20026;-75
2023/09/23 10:18:11;;;;;;;6.03;3.00;;;;;;;15.65;100.00;21096.31;4824923;29;20530;-74
2023/09/23 10:20:40;;;;;;;10.20;3.20;;;;;;;15.73;100.00;19367.13;4826871;29;20039;-75
2023/09/23 10:23:10;;;;;;;11.63;3.70;;;;;;;15.73;100.00;18674.66;4828127;29;20039;-74
2023/09/23 10:25:37;;;;;;;12.05;3.40;;;;;;;16.00;100.00;17644.31;4820629;29;20380;-72
2023/09/23 10:28:04;;;;;;;10.48;3.78;;;;;;;16.10;100.00;20419.97;4809127;29;20034;-76
2023/09/23 10:30:30;;;;;;;13.80;3.67;;;;;;;16.03;100.00;22844.34;4825358;29;20657;-75
2023/09/23 10:32:55;;;;;;;12.47;3.47;;;;;;;16.45;100.00;25291.75;4830044;29;20037;-74
2023/09/23 10:35:24;;;;;;;9.80;3.27;;;;;;;16.61;100.00;28774.22;4830544;29;20497;-75
2023/09/23 10:37:49;;;;;;;11.15;3.70;;;;;;;16.76;100.00;34350.09;4828260;29;20031;-77
2023/09/23 10:40:17;;;;;;;16.70;4.87;;;;;;;16.70;100.00;39922.00;4825931;29;20030;-77
2023/09/23 10:42:48;;;;;;;14.63;3.15;;;;;;;16.60;100.00;43403.47;4809380;29;20145;-76
2023/09/23 10:45:17;;;;;;;11.75;2.97;;;;;;;16.49;100.00;49331.84;4822813;29;20030;-77
2023/09/23 10:47:43;;;;;;;12.20;3.13;;;;;;;16.65;100.00;45850.97;4835265;29;20050;-77
2023/09/23 10:50:10;;;;;;;6.55;2.53;;;;;;;16.86;100.00;47614.84;4831714;29;20508;-77
2023/09/23 10:52:39;;;;;;;9.80;2.80;;;;;;;16.91;100.00;51115.78;4832918;29;20044;-77
2023/09/23 10:55:09;;;;;;;5.20;3.03;;;;;;;16.95;100.00;61979.44;4816563;29;20041;-76
2023/09/23 10:57:35;;;;;;;10.25;3.05;;;;;;;17.48;100.00;66602.63;4829507;29;20130;-77
2023/09/23 11:00:01;;;;;;;9.23;2.70;;;;;;;18.05;100.00;81118.31;4823280;29;20519;-77
2023/09/23 11:02:26;;;;;;;5.67;2.30;;;;;;;17.90;100.00;147513.22;4821448;29;20027;-77
2023/09/23 11:04:55;;;;;;;7.57;1.80;;;;;;;18.17;100.00;155991.22;4820063;29;20387;-77
2023/09/23 11:07:20;;;;;;;6.53;1.95;;;;;;;18.11;100.00;155975.59;4820695;29;20518;-76
2023/09/23 11:09:46;;;;;;;4.60;1.63;;;;;;;18.18;100.00;155993.81;4819499;29;20035;-78
2023/09/23 11:12:15;;;;;;;5.78;2.28;;;;;;;18.35;100.00;156038.13;4817683;29;20065;-77
2023/09/23 11:14:45;;;;;;;4.70;1.90;;;;;;;18.28;100.00;156019.84;4815752;29;20035;-78
2023/09/23 11:17:29;;;;;;;4.65;1.90;;;;;;;18.02;100.00;155950.81;4817965;29;21900;-77
2023/09/23 11:19:55;;;;;;;4.38;2.00;;;;;;;17.86;100.00;155910.47;4819811;29;20030;-78
2023/09/23 11:22:28;;;;;;;6.90;2.03;;;;;;;17.96;100.00;155936.50;4817777;29;20034;-78
2023/09/23 11:24:55;;;;;;;6.60;2.17;;;;;;;18.04;100.00;155956.06;4817775;29;20038;-77
2023/09/23 11:27:25;;;;;;;7.03;2.13;;;;;;;17.95;100.00;155933.91;4817931;29;20094;-77
2023/09/23 11:29:51;;;;;;;9.68;2.55;;;;;;;17.94;100.00;155930.00;4819239;29;20483;-76
2023/09/23 11:32:23;;;;;;;10.38;2.70;;;;;;;18.07;100.00;155963.84;4823044;29;20117;-78
2023/09/23 11:34:49;;;;;;;5.95;1.80;;;;;;;18.23;100.00;156005.50;4800538;29;20511;-77
2023/09/23 11:37:14;;;;;;;5.70;1.70;;;;;;;18.57;100.00;156094.16;4816067;29;20087;-78
2023/09/23 11:39:40;;;;;;;5.83;1.90;;;;;;;18.76;100.00;156144.97;4817862;29;20042;-77
2023/09/23 11:42:05;;;;;;;4.23;1.70;;;;;;;18.53;100.00;156085.06;4809476;29;20396;-77
2023/09/23 11:44:31;;;;;;;6.43;2.10;;;;;;;18.11;100.00;155974.25;4821974;29;20105;-77
2023/09/23 11:46:56;;;;;;;10.70;2.40;;;;;;;17.77;100.00;155885.75;4809654;29;20445;-72
2023/09/23 11:57:08;;;;;;;9.13;2.50;;;;;;;17.16;100.00;145328.22;5267487;24;20054;-74
2023/09/23 11:59:33;;;;;;;7.40;2.58;;;;;;;17.10;100.00;149737.38;4818984;29;20084;-73
2023/09/23 12:02:00;;;;;;;6.93;2.20;;;;;;;17.06;100.00;146378.56;4820537;29;20097;-75
2023/09/23 12:25:07;;;;;;;8.27;2.40;;;;;;;18.76;100.00;156144.97;5165296;24;20061;-72
2023/09/23 12:27:33;;;;;;;3.90;2.08;;;;;;;18.67;100.00;156120.22;4855418;29;20068;-75
2023/09/23 12:45:30;;;;;;;5.38;2.00;;;;;;;18.11;100.00;155975.59;5498413;24;20507;-76
2023/09/23 12:58:16;;;;;;;4.45;1.77;;;;;;;17.48;100.00;155810.22;5137307;24;20062;-77
2023/09/23 13:00:41;;;;;;;5.80;1.57;;;;;;;17.27;100.00;155755.50;4814706;29;20086;-77
2023/09/23 13:03:09;;;;;;;6.67;1.80;;;;;;;17.22;100.00;155742.47;4817990;29;20057;-77
2023/09/23 13:28:51;;;;;;;8.07;1.80;;;;;;;17.54;100.00;155827.16;5585568;24;20056;-76
2023/09/23 13:31:16;;;;;;;3.17;1.60;;;;;;;17.45;100.00;155802.44;4836733;29;20391;-76
2023/09/23 13:33:42;;;;;;;2.90;1.53;;;;;;;17.30;100.00;155764.59;4821197;29;20406;-76
2023/09/23 13:36:07;;;;;;;6.30;1.90;;;;;;;17.26;100.00;155754.22;4812736;29;20289;-75
2023/09/23 13:38:33;;;;;;;5.43;1.80;;;;;;;17.23;100.00;155745.13;4838372;29;20460;-76
2023/09/23 13:41:00;;;;;;;3.40;1.80;;;;;;;17.28;100.00;155758.13;4839494;29;20030;-76
2023/09/23 13:43:27;;;;;;;5.95;1.63;;;;;;;17.23;100.00;155745.13;4835994;29;20052;-77
2023/09/23 13:45:52;;;;;;;6.63;2.47;;;;;;;17.33;100.00;155771.09;4835549;29;20028;-77
2023/09/23 13:48:17;;;;;;;14.00;1.97;;;;;;;17.37;100.00;155781.53;4820225;29;20030;-77
2023/09/23 13:53:18;;;;;;;5.47;2.30;;;;;;;17.87;100.00;155913.06;5742856;23;20065;-76
2023/09/23 13:55:43;;;;;;;5.00;2.00;;;;;;;17.69;100.00;155864.88;4835804;29;20046;-77
2023/09/23 13:58:09;;;;;;;8.27;2.27;;;;;;;17.59;100.00;155840.16;4818976;29;20030;-76
2023/09/23 14:00:35;;;;;;;7.90;2.73;;;;;;;17.46;100.00;155806.28;4817765;29;20026;-77
2023/09/23 14:03:00;;;;;;;8.50;2.40;;;;;;;17.34;100.00;155775.03;4835418;29;20448;-76
2023/09/23 14:05:26;;;;;;;6.57;3.00;;;;;;;17.38;100.00;155784.13;4817459;29;20041;-77
2023/09/23 14:07:51;;;;;;;5.77;2.70;;;;;;;17.38;100.00;155784.13;4837992;29;20030;-74
2023/09/23 14:10:17;;;;;;;6.67;2.00;;;;;;;17.51;100.00;155818.03;4817634;29;20033;-74
2023/09/23 14:12:42;;;;;;;7.10;1.90;;;;;;;17.63;100.00;155849.28;4834187;29;20029;-73
2023/09/23 14:15:08;;;;;;;6.53;2.43;;;;;;;17.59;100.00;155838.84;4819574;29;20040;-73
2023/09/23 14:17:33;;;;;;;5.05;2.10;;;;;;;17.88;100.00;155915.66;4818473;29;20037;-74
2023/09/23 14:20:03;;;;;;;9.43;2.80;;;;;;;18.39;100.00;156047.25;4832587;29;20094;-73
2023/09/23 14:25:04;;;;;;;4.97;1.95;;;;;;;18.79;100.00;156152.75;5621289;24;20070;-72
2023/09/23 14:27:30;;;;;;;4.95;2.33;;;;;;;18.99;100.00;156204.88;4829611;29;20026;-72
2023/09/23 14:29:55;;;;;;;4.60;2.30;;;;;;;18.93;100.00;156187.94;4819412;29;20406;-72
2023/09/23 14:32:21;;;;;;;7.30;2.00;;;;;;;18.90;100.00;156181.41;4832477;29;20033;-72
2023/09/23 14:34:46;;;;;;;7.70;2.47;;;;;;;19.07;100.00;156224.44;4837202;29;20078;-74
2023/09/23 14:37:12;;;;;;;4.43;1.90;;;;;;;19.09;100.00;156229.63;4833248;29;20141;-72
2023/09/23 14:39:38;;;;;;;8.93;2.25;;;;;;;19.06;100.00;156221.84;4832564;29;20105;-74
2023/09/23 14:42:04;;;;;;;6.57;1.75;;;;;;;18.99;100.00;156204.88;4811768;29;20411;-72
2023/09/23 14:44:29;;;;;;;7.03;1.60;;;;;;;19.08;100.00;156227.03;4831532;29;20030;-74
2023/09/23 14:46:55;;;;;;;6.23;2.00;;;;;;;18.89;100.00;156178.81;4828427;29;20026;-74
2023/09/23 14:49:20;;;;;;;1.90;1.40;;;;;;;18.81;100.00;156156.66;4821744;29;20449;-75
2023/09/23 14:51:46;;;;;;;4.77;1.90;;;;;;;18.85;100.00;156167.09;4835506;29;20074;-74
2023/09/23 14:54:12;;;;;;;4.30;1.98;;;;;;;18.90;100.00;156181.41;4836648;29;20030;-75
2023/09/23 14:56:37;;;;;;;3.07;1.80;;;;;;;18.83;100.00;156161.91;4829938;29;20491;-73
2023/09/23 14:59:03;;;;;;;3.57;1.50;;;;;;;18.75;100.00;156141.03;4836737;29;20042;-75
2023/09/23 15:01:28;;;;;;;5.30;2.17;;;;;;;18.70;100.00;156128.00;4835046;29;20037;-75
2023/09/23 15:03:54;;;;;;;5.87;1.70;;;;;;;18.59;100.00;156100.69;4814869;29;20094;-74
2023/09/23 15:06:19;;;;;;;5.00;1.70;;;;;;;18.68;100.00;156124.09;4836178;29;20053;-73
2023/09/23 15:08:45;;;;;;;2.77;1.67;;;;;;;18.82;100.00;156160.59;4832191;29;20061;-75
2023/09/23 15:11:10;;;;;;;8.57;1.90;;;;;;;18.72;100.00;156133.25;4836366;29;20045;-75
2023/09/23 15:13:36;;;;;;;3.80;1.47;;;;;;;18.64;100.00;156112.38;4836795;29;20038;-73
2023/09/23 15:21:14;;;;;;;7.22;1.70;;;;;;;18.28;100.00;156018.53;5835769;24;20021;-75
2023/09/23 15:23:40;;;;;;;5.10;2.08;;;;;;;18.22;100.00;156002.91;4809302;29;20072;-78
2023/09/23 15:26:05;;;;;;;6.73;1.60;;;;;;;18.08;100.00;155966.47;4806766;29;20452;-77
2023/09/23 15:28:32;;;;;;;5.33;1.63;;;;;;;18.03;100.00;155953.44;4821238;29;20053;-77
2023/09/23 15:30:58;;;;;;;3.30;1.60;;;;;;;17.89;100.00;155918.28;4813245;29;20036;-77
2023/09/23 15:33:23;;;;;;;4.23;1.63;;;;;;;17.84;100.00;155903.94;4814167;29;20120;-77
2023/09/23 16:22:32;;;;;;;7.13;1.33;;;;;;;17.15;100.00;155724.28;5296144;23;20070;-76
2023/09/23 16:24:58;;;;;;;3.17;1.63;;;;;;;17.18;100.00;155733.38;4838657;29;20372;-76
2023/09/23 16:27:27;;;;;;;2.37;1.40;;;;;;;17.17;100.00;155729.47;4837328;29;20399;-75
2023/09/23 16:29:52;;;;;;;3.05;1.40;;;;;;;17.02;100.00;155690.47;4835718;29;20069;-74
2023/09/23 16:32:17;;;;;;;6.30;1.70;;;;;;;17.01;100.00;155689.13;4824792;29;20129;-74
2023/09/23 16:34:43;;;;;;;2.40;1.93;;;;;;;16.89;100.00;155656.59;4831974;29;20497;-75
2023/09/23 16:37:08;;;;;;;4.50;1.30;;;;;;;16.82;100.00;155639.69;4841760;29;20485;-74
2023/09/23 16:39:34;;;;;;;6.40;1.23;;;;;;;16.70;100.00;155607.19;4834013;29;20570;-75
2023/09/23 16:41:59;;;;;;;4.43;1.43;;;;;;;16.61;100.00;155585.09;4821345;29;20040;-75
2023/09/23 16:44:25;;;;;;;4.13;1.50;;;;;;;16.55;100.00;155569.44;4837072;29;20046;-75
2023/09/23 16:46:50;;;;;;;2.63;1.47;;;;;;;16.53;100.00;155564.25;4841368;29;20102;-74
2023/09/23 16:49:15;;;;;;;9.83;1.70;;;;;;;16.47;100.00;155548.66;4833216;29;20384;-74
2023/09/23 16:51:41;;;;;;;6.00;2.00;;;;;;;16.43;100.00;155538.22;4837549;29;20041;-74
2023/09/23 16:54:07;;;;;;;8.73;1.70;;;;;;;16.29;100.00;155500.47;4839665;29;20042;-73
2023/09/23 16:56:33;;;;;;;4.00;1.80;;;;;;;16.16;100.00;155466.69;4818078;29;20056;-75
2023/09/23 16:58:58;;;;;;;1.83;1.17;;;;;;;16.18;100.00;155471.88;4833614;29;20563;-75
2023/09/23 17:01:24;;;;;;;4.83;1.33;;;;;;;16.04;100.00;155436.78;4820955;29;20287;-75
2023/09/23 17:03:49;;;;;;;2.80;1.43;;;;;;;15.97;100.00;155418.59;4833706;29;20041;-75
2023/09/23 17:06:14;;;;;;;1.53;1.43;;;;;;;15.94;100.00;155409.44;4815233;29;20051;-74
2023/09/23 17:08:41;;;;;;;3.33;1.60;;;;;;;15.89;100.00;155397.75;4813561;29;20052;-74
2023/09/23 17:11:07;;;;;;;5.05;1.90;;;;;;;15.81;100.00;155375.66;4815710;29;20041;-73
2023/09/23 17:13:34;;;;;;;10.83;1.80;;;;;;;15.72;100.00;155353.56;4819182;29;20045;-74
2023/09/23 17:15:59;;;;;;;6.18;1.60;;;;;;;15.65;100.00;155334.06;4836568;29;20040;-75
2023/09/23 17:18:24;;;;;;;5.70;1.50;;;;;;;15.61;100.00;155323.66;4837266;29;20398;-75
2023/09/23 17:20:50;;;;;;;4.60;1.70;;;;;;;15.54;100.00;155305.47;4814457;29;20022;-75
2023/09/23 17:23:15;;;;;;;3.87;1.77;;;;;;;15.47;100.00;155288.56;4819218;29;20519;-76
2023/09/23 17:25:48;;;;;;;8.10;1.90;;;;;;;15.42;100.00;155275.56;4835801;29;20613;-75
2023/09/23 17:28:13;;;;;;;5.38;1.98;;;;;;;15.35;100.00;155256.06;4818845;29;20037;-74
2023/09/23 17:30:42;;;;;;;7.43;2.77;;;;;;;15.36;100.00;154204.31;4816342;29;20041;-76
2023/09/23 17:33:07;;;;;;;6.93;1.75;;;;;;;15.30;100.00;151231.47;4835067;29;20037;-75
2023/09/23 17:35:33;;;;;;;5.73;2.00;;;;;;;15.24;100.00;145576.50;4817439;29;20582;-74
2023/09/23 17:37:58;;;;;;;6.33;2.07;;;;;;;15.21;100.00;143070.22;4835713;29;20525;-75
2023/09/23 17:40:24;;;;;;;4.30;1.93;;;;;;;15.13;100.00;135564.00;4829288;29;20037;-76
2023/09/23 17:47:55;;;;;;;8.32;2.40;;;;;;;15.05;100.00;126297.28;4812264;29;20054;-77
2023/09/23 17:50:21;;;;;;;6.37;2.90;;;;;;;15.12;100.00;134494.44;4812002;29;20034;-77
2023/09/23 17:52:47;;;;;;;4.20;1.70;;;;;;;15.20;100.00;146282.28;4815925;29;20042;-76
2023/09/23 17:55:13;;;;;;;1.80;1.70;;;;;;;15.24;100.00;152974.00;4793590;29;20451;-77
2023/09/23 17:57:40;;;;;;;3.60;1.70;;;;;;;15.20;100.00;154085.97;4782030;29;20582;-75
2023/09/23 18:00:06;;;;;;;;;;;;;;;15.16;100.00;155207.94;4798778;29;20048;-76
2023/09/23 18:02:32;;;;;;;4.45;2.00;;;;;;;15.15;100.00;155204.09;4807689;29;19924;-76
2023/09/23 18:04:57;;;;;;;5.70;2.10;;;;;;;15.09;100.00;154940.94;4815437;29;20050;-76
2023/09/23 18:07:23;;;;;;;18.93;2.87;;;;;;;15.01;100.00;153405.41;4799111;29;20043;-76
2023/09/23 18:09:48;;;;;;;5.57;2.37;;;;;;;14.98;100.00;152146.09;4811735;29;20054;-75
2023/09/23 18:12:14;;;;;;;6.30;2.00;;;;;;;14.95;100.00;148116.94;4787901;29;20038;-77
2023/09/23 18:14:39;;;;;;;6.17;2.17;;;;;;;14.85;100.00;147193.88;4812627;29;20530;-75
2023/09/23 18:17:05;;;;;;;7.53;2.10;;;;;;;14.86;100.00;142273.09;4812480;29;20038;-76
2023/09/23 18:19:30;;;;;;;6.33;2.20;;;;;;;14.80;100.00;142972.03;4809688;29;20038;-76
2023/09/23 18:21:56;;;;;;;5.27;1.83;;;;;;;14.69;100.00;138668.91;4800760;29;20046;-76
2023/09/23 18:24:21;;;;;;;10.83;2.17;;;;;;;14.62;100.00;135092.47;4820259;29;20035;-75
2023/09/23 18:26:47;;;;;;;4.90;2.47;;;;;;;14.53;100.00;126542.53;4817488;29;20563;-76
2023/09/23 18:29:12;;;;;;;2.80;1.73;;;;;;;14.51;100.00;123698.72;4803629;29;20038;-77
2023/09/23 18:31:40;;;;;;;12.63;2.43;;;;;;;14.42;100.00;120842.91;4799777;29;20472;-78
2023/09/23 18:34:07;;;;;;;8.75;2.67;;;;;;;14.41;100.00;118004.75;4804456;29;20073;-77
2023/09/23 18:36:33;;;;;;;6.60;2.60;;;;;;;14.39;100.00;118355.06;4816911;29;20030;-77
2023/09/23 18:39:00;;;;;;;8.27;2.10;;;;;;;14.29;100.00;114441.56;4816968;29;20045;-77
2023/09/23 18:41:26;;;;;;;8.25;2.10;;;;;;;14.26;100.00;113019.63;4802867;29;20030;-77
2023/09/23 18:55:15;;;;;;;4.97;2.47;;;;;;;13.84;100.00;92136.81;5519627;24;20063;-78
2023/09/23 18:57:40;;;;;;;7.15;2.85;;;;;;;13.83;100.00;86512.19;4808540;29;20046;-77
2023/09/23 19:00:10;;;;;;;7.67;2.83;;;;;;;13.73;100.00;83689.53;4789869;29;20026;-76
2023/09/23 19:02:36;;;;;;;4.75;2.63;;;;;;;13.68;100.00;79474.34;4799122;29;20042;-77
2023/09/23 19:05:03;;;;;;;4.18;2.53;;;;;;;13.57;100.00;75257.28;4806479;29;20045;-77
2023/09/23 19:07:29;;;;;;;3.97;2.08;;;;;;;13.57;100.00;75607.38;4814413;29;20059;-77
2023/09/23 19:09:55;;;;;;;11.77;2.93;;;;;;;13.52;100.00;72451.00;4815208;29;20046;-76
2023/09/23 19:12:20;;;;;;;5.03;2.07;;;;;;;13.40;100.00;72436.38;4814892;29;20301;-77
2023/09/23 19:14:46;;;;;;;5.30;3.13;;;;;;;13.33;100.00;67535.84;4810897;29;20034;-77
2023/09/23 19:17:14;;;;;;;3.05;2.10;;;;;;;13.18;100.00;67518.75;4799008;29;20385;-77
2023/09/23 19:19:39;;;;;;;12.63;2.25;;;;;;;13.15;100.00;65420.44;4807237;29;20035;-78
2023/09/23 19:22:05;;;;;;;4.63;2.30;;;;;;;13.06;100.00;61225.72;4814731;29;20091;-77
2023/09/23 19:24:30;;;;;;;8.67;2.40;;;;;;;13.04;100.00;57043.41;4814059;29;20038;-77
2023/09/23 21:26:20;;;;;;;10.85;4.20;;;;;;;11.26;100.00;19557.13;5080851;24;20461;-72
2023/09/23 21:28:46;;;;;;;10.70;3.67;;;;;;;11.25;100.00;18525.16;4835442;29;20468;-72
2023/09/23 21:31:12;;;;;;;10.87;4.10;;;;;;;11.34;100.00;16465.78;4840841;29;20033;-74
2023/09/23 21:33:37;;;;;;;6.60;4.07;;;;;;;11.36;100.00;15092.16;4844651;29;20041;-74
2023/09/23 21:36:03;;;;;;;8.37;3.80;;;;;;;11.34;100.00;14747.94;4826475;29;20078;-75
2023/09/23 21:41:04;;;;;;;6.60;4.15;;;;;;;11.30;100.00;14403.41;5054410;24;20480;-74
2023/09/23 21:43:30;;;;;;;11.30;3.63;;;;;;;11.32;100.00;14403.97;4834783;29;20046;-73
2023/09/23 22:01:26;;;;;;;14.63;4.28;;;;;;;11.19;100.00;11997.75;4854833;24;20049;-73
2023/09/23 22:03:51;;;;;;;9.63;3.63;;;;;;;11.17;100.00;11310.97;4839770;29;20181;-72
2023/09/23 22:06:17;;;;;;;8.40;3.90;;;;;;;11.14;100.00;11653.53;4834457;29;20087;-73
2023/09/23 22:08:42;;;;;;;8.10;4.40;;;;;;;11.09;100.00;12681.78;4819704;29;20068;-74
2023/09/23 22:11:08;;;;;;;14.70;4.50;;;;;;;11.05;100.00;13023.88;4832626;29;20042;-74
2023/09/23 22:13:33;;;;;;;12.63;4.80;;;;;;;10.98;100.00;12679.19;4831248;29;20034;-74
2023/09/23 22:16:00;;;;;;;11.17;4.33;;;;;;;10.98;100.00;12336.09;4840612;29;20033;-73
2023/09/23 22:18:28;;;;;;;7.07;3.88;;;;;;;10.90;100.00;11991.13;4839534;29;20095;-76
2023/09/23 22:20:53;;;;;;;7.72;4.43;;;;;;;10.85;100.00;12333.00;4816219;29;20084;-77
2023/09/23 22:23:20;;;;;;;8.07;4.17;;;;;;;10.85;100.00;13019.03;4818461;29;20490;-76
2023/09/23 22:25:45;;;;;;;13.50;5.57;;;;;;;10.88;100.00;11647.72;4831531;29;20098;-77
2023/09/23 22:28:12;;;;;;;12.07;5.53;;;;;;;10.87;100.00;11304.66;4835844;29;20042;-77
2023/09/23 22:30:39;;;;;;;;;;;;;;;10.87;100.00;10961.66;4837527;29;20062;-77
2023/09/23 22:33:05;;;;;;;13.50;7.00;;;;;;;10.83;100.00;10617.97;4813753;29;19920;-77
2023/09/23 22:35:32;;;;;;;22.60;7.75;;;;;;;10.92;100.00;8905.72;4837445;29;20030;-77
2023/09/23 22:37:59;;;;;;;11.60;7.10;;;;;;;10.90;100.00;8220.06;4839178;29;20042;-77
2023/09/23 22:40:25;;;;;;;;;;;;;;;10.96;100.00;7878.28;4824144;29;20050;-76
2023/09/23 22:42:51;;;;;;;13.77;6.93;;;;;;;10.89;100.00;8219.91;4822072;29;20007;-77
2023/09/23 22:45:18;;;;;;;17.23;7.80;;;;;;;10.84;100.00;8219.00;4838861;29;20030;-76